sensor_id;sensor_type;location;lat;lon;timestamp;temperature;humidity
30381;DHT22;17169;50.966;11.038;2023-03-17T00:02:07;7.50;88.70
30381;DHT22;17169;50.966;11.038;2023-03-17T00:05:21;7.50;88.60
30381;DHT22;17169;50.966;11.038;2023-03-17T00:08:26;7.50;88.60
30381;DHT22;17169;50.966;11.038;2023-03-17T00:11:28;7.50;88.90
30381;DHT22;17169;50.966;11.038;2023-03-17T00:14:31;7.50;88.50
30381;DHT22;17169;50.966;11.038;2023-03-17T00:17:33;7.50;89.50
30381;DHT22;17169;50.966;11.038;2023-03-17T00:20:37;7.50;88.80
30381;DHT22;17169;50.966;11.038;2023-03-17T00:23:40;7.50;89.10
30381;DHT22;17169;50.966;11.038;2023-03-17T00:26:44;7.50;89.20
30381;DHT22;17169;50.966;11.038;2023-03-17T00:29:47;7.50;89.40
30381;DHT22;17169;50.966;11.038;2023-03-17T00:32:51;7.50;89.00
30381;DHT22;17169;50.966;11.038;2023-03-17T00:35:56;7.50;89.10
30381;DHT22;17169;50.966;11.038;2023-03-17T00:38:59;7.50;89.20
30381;DHT22;17169;50.966;11.038;2023-03-17T00:42:01;7.50;89.40
30381;DHT22;17169;50.966;11.038;2023-03-17T00:45:05;7.50;89.20
30381;DHT22;17169;50.966;11.038;2023-03-17T00:48:12;7.50;89.40
30381;DHT22;17169;50.966;11.038;2023-03-17T00:51:16;7.50;89.50
30381;DHT22;17169;50.966;11.038;2023-03-17T00:54:19;7.50;89.10
30381;DHT22;17169;50.966;11.038;2023-03-17T00:57:21;7.50;89.50
30381;DHT22;17169;50.966;11.038;2023-03-17T01:00:26;7.50;89.50
30381;DHT22;17169;50.966;11.038;2023-03-17T01:03:29;7.50;89.40
30381;DHT22;17169;50.966;11.038;2023-03-17T01:06:34;7.50;89.60
30381;DHT22;17169;50.966;11.038;2023-03-17T01:09:37;7.50;89.80
30381;DHT22;17169;50.966;11.038;2023-03-17T01:12:39;7.50;90.00
30381;DHT22;17169;50.966;11.038;2023-03-17T01:15:44;7.50;89.90
30381;DHT22;17169;50.966;11.038;2023-03-17T01:18:47;7.60;90.00
30381;DHT22;17169;50.966;11.038;2023-03-17T01:21:51;7.50;90.00
30381;DHT22;17169;50.966;11.038;2023-03-17T01:24:53;7.50;89.80
30381;DHT22;17169;50.966;11.038;2023-03-17T01:27:57;7.50;90.00
30381;DHT22;17169;50.966;11.038;2023-03-17T01:31:00;7.50;90.00
30381;DHT22;17169;50.966;11.038;2023-03-17T01:34:02;7.60;90.00
30381;DHT22;17169;50.966;11.038;2023-03-17T01:37:07;7.60;90.00
30381;DHT22;17169;50.966;11.038;2023-03-17T01:40:13;7.50;90.10
30381;DHT22;17169;50.966;11.038;2023-03-17T01:43:19;7.50;90.00
30381;DHT22;17169;50.966;11.038;2023-03-17T01:46:24;7.50;90.10
30381;DHT22;17169;50.966;11.038;2023-03-17T01:49:28;7.50;90.20
30381;DHT22;17169;50.966;11.038;2023-03-17T01:52:37;7.50;90.40
30381;DHT22;17169;50.966;11.038;2023-03-17T01:55:40;7.50;90.20
30381;DHT22;17169;50.966;11.038;2023-03-17T01:58:47;7.50;90.30
30381;DHT22;17169;50.966;11.038;2023-03-17T02:01:53;7.50;90.10
30381;DHT22;17169;50.966;11.038;2023-03-17T02:04:58;7.50;90.30
30381;DHT22;17169;50.966;11.038;2023-03-17T02:08:08;7.50;90.10
30381;DHT22;17169;50.966;11.038;2023-03-17T02:11:11;7.60;90.10
30381;DHT22;17169;50.966;11.038;2023-03-17T02:14:13;7.60;90.10
30381;DHT22;17169;50.966;11.038;2023-03-17T02:17:16;7.60;90.10
30381;DHT22;17169;50.966;11.038;2023-03-17T02:24:20;7.60;90.10
30381;DHT22;17169;50.966;11.038;2023-03-17T02:27:26;7.60;90.10
30381;DHT22;17169;50.966;11.038;2023-03-17T02:30:32;7.60;90.00
30381;DHT22;17169;50.966;11.038;2023-03-17T02:33:35;7.60;90.20
30381;DHT22;17169;50.966;11.038;2023-03-17T02:36:38;7.60;90.20
30381;DHT22;17169;50.966;11.038;2023-03-17T02:39:42;7.60;90.20
30381;DHT22;17169;50.966;11.038;2023-03-17T02:42:44;7.60;90.10
30381;DHT22;17169;50.966;11.038;2023-03-17T02:45:47;7.60;90.30
30381;DHT22;17169;50.966;11.038;2023-03-17T02:48:49;7.50;90.40
30381;DHT22;17169;50.966;11.038;2023-03-17T02:51:52;7.60;90.30
30381;DHT22;17169;50.966;11.038;2023-03-17T02:54:56;7.50;90.30
30381;DHT22;17169;50.966;11.038;2023-03-17T02:57:58;7.60;90.40
30381;DHT22;17169;50.966;11.038;2023-03-17T03:01:02;7.50;90.30
30381;DHT22;17169;50.966;11.038;2023-03-17T03:04:05;7.50;90.10
30381;DHT22;17169;50.966;11.038;2023-03-17T03:07:08;7.60;90.30
30381;DHT22;17169;50.966;11.038;2023-03-17T03:10:12;7.60;90.10
30381;DHT22;17169;50.966;11.038;2023-03-17T03:13:15;7.60;90.20
30381;DHT22;17169;50.966;11.038;2023-03-17T03:16:18;7.70;90.40
30381;DHT22;17169;50.966;11.038;2023-03-17T03:19:20;7.70;90.40
30381;DHT22;17169;50.966;11.038;2023-03-17T03:22:24;7.60;90.20
30381;DHT22;17169;50.966;11.038;2023-03-17T03:25:28;7.70;90.10
30381;DHT22;17169;50.966;11.038;2023-03-17T03:28:30;7.70;90.20
30381;DHT22;17169;50.966;11.038;2023-03-17T03:31:32;7.70;90.40
30381;DHT22;17169;50.966;11.038;2023-03-17T03:34:35;7.60;90.50
30381;DHT22;17169;50.966;11.038;2023-03-17T03:37:37;7.60;90.40
30381;DHT22;17169;50.966;11.038;2023-03-17T03:40:41;7.70;90.50
30381;DHT22;17169;50.966;11.038;2023-03-17T03:43:43;7.60;90.50
30381;DHT22;17169;50.966;11.038;2023-03-17T03:46:46;7.60;90.20
30381;DHT22;17169;50.966;11.038;2023-03-17T03:49:48;7.60;90.50
30381;DHT22;17169;50.966;11.038;2023-03-17T03:52:50;7.60;90.70
30381;DHT22;17169;50.966;11.038;2023-03-17T03:55:55;7.60;90.50
30381;DHT22;17169;50.966;11.038;2023-03-17T03:58:57;7.60;90.50
30381;DHT22;17169;50.966;11.038;2023-03-17T04:01:59;7.60;90.40
30381;DHT22;17169;50.966;11.038;2023-03-17T04:05:02;7.60;90.40
30381;DHT22;17169;50.966;11.038;2023-03-17T04:08:05;7.50;90.30
30381;DHT22;17169;50.966;11.038;2023-03-17T04:11:10;7.50;90.40
30381;DHT22;17169;50.966;11.038;2023-03-17T04:14:12;7.50;90.40
30381;DHT22;17169;50.966;11.038;2023-03-17T04:17:15;7.50;90.40
30381;DHT22;17169;50.966;11.038;2023-03-17T04:20:18;7.50;90.60
30381;DHT22;17169;50.966;11.038;2023-03-17T04:23:20;7.40;90.70
30381;DHT22;17169;50.966;11.038;2023-03-17T04:26:24;7.40;90.70
30381;DHT22;17169;50.966;11.038;2023-03-17T04:29:27;7.30;90.90
30381;DHT22;17169;50.966;11.038;2023-03-17T04:32:29;7.20;90.80
30381;DHT22;17169;50.966;11.038;2023-03-17T04:35:32;7.20;90.80
30381;DHT22;17169;50.966;11.038;2023-03-17T04:38:34;7.20;90.90
30381;DHT22;17169;50.966;11.038;2023-03-17T04:41:38;7.10;90.50
30381;DHT22;17169;50.966;11.038;2023-03-17T04:44:40;7.20;90.40
30381;DHT22;17169;50.966;11.038;2023-03-17T04:47:44;7.10;90.50
30381;DHT22;17169;50.966;11.038;2023-03-17T04:50:46;7.20;90.50
30381;DHT22;17169;50.966;11.038;2023-03-17T04:53:49;7.10;90.60
30381;DHT22;17169;50.966;11.038;2023-03-17T04:56:53;7.20;90.60
30381;DHT22;17169;50.966;11.038;2023-03-17T04:59:56;7.10;90.70
30381;DHT22;17169;50.966;11.038;2023-03-17T05:02:58;7.10;90.80
30381;DHT22;17169;50.966;11.038;2023-03-17T05:06:01;7.00;90.60
30381;DHT22;17169;50.966;11.038;2023-03-17T05:09:04;7.10;90.50
30381;DHT22;17169;50.966;11.038;2023-03-17T05:12:09;7.10;90.50
30381;DHT22;17169;50.966;11.038;2023-03-17T05:15:11;7.10;90.60
30381;DHT22;17169;50.966;11.038;2023-03-17T05:18:14;7.00;90.50
30381;DHT22;17169;50.966;11.038;2023-03-17T05:21:17;7.00;90.50
30381;DHT22;17169;50.966;11.038;2023-03-17T05:24:19;7.10;90.70
30381;DHT22;17169;50.966;11.038;2023-03-17T05:27:23;7.00;90.80
30381;DHT22;17169;50.966;11.038;2023-03-17T05:30:26;7.00;90.90
30381;DHT22;17169;50.966;11.038;2023-03-17T05:33:28;7.00;90.70
30381;DHT22;17169;50.966;11.038;2023-03-17T05:36:31;6.90;90.80
30381;DHT22;17169;50.966;11.038;2023-03-17T05:39:33;6.90;90.90
30381;DHT22;17169;50.966;11.038;2023-03-17T05:42:37;6.90;90.70
30381;DHT22;17169;50.966;11.038;2023-03-17T05:45:39;6.90;90.60
30381;DHT22;17169;50.966;11.038;2023-03-17T05:48:42;6.90;90.70
30381;DHT22;17169;50.966;11.038;2023-03-17T05:51:44;6.90;90.50
30381;DHT22;17169;50.966;11.038;2023-03-17T05:54:47;7.00;90.50
30381;DHT22;17169;50.966;11.038;2023-03-17T05:57:50;7.00;90.60
30381;DHT22;17169;50.966;11.038;2023-03-17T06:00:53;7.00;90.50
30381;DHT22;17169;50.966;11.038;2023-03-17T06:03:56;7.00;90.50
30381;DHT22;17169;50.966;11.038;2023-03-17T06:06:58;7.10;90.60
30381;DHT22;17169;50.966;11.038;2023-03-17T06:10:01;7.20;90.50
30381;DHT22;17169;50.966;11.038;2023-03-17T06:13:04;7.20;90.40
30381;DHT22;17169;50.966;11.038;2023-03-17T06:16:07;7.30;89.90
30381;DHT22;17169;50.966;11.038;2023-03-17T06:19:09;7.30;89.60
30381;DHT22;17169;50.966;11.038;2023-03-17T06:22:12;7.40;89.70
30381;DHT22;17169;50.966;11.038;2023-03-17T06:25:14;7.40;89.90
30381;DHT22;17169;50.966;11.038;2023-03-17T06:28:18;7.50;90.10
30381;DHT22;17169;50.966;11.038;2023-03-17T06:31:20;7.50;90.00
30381;DHT22;17169;50.966;11.038;2023-03-17T06:34:26;7.50;89.80
30381;DHT22;17169;50.966;11.038;2023-03-17T06:37:29;7.60;89.80
30381;DHT22;17169;50.966;11.038;2023-03-17T06:40:32;7.70;89.30
30381;DHT22;17169;50.966;11.038;2023-03-17T06:43:35;7.80;89.20
30381;DHT22;17169;50.966;11.038;2023-03-17T06:46:38;7.90;88.80
30381;DHT22;17169;50.966;11.038;2023-03-17T06:49:41;8.00;88.40
30381;DHT22;17169;50.966;11.038;2023-03-17T06:52:43;8.10;88.10
30381;DHT22;17169;50.966;11.038;2023-03-17T06:55:46;8.10;87.50
30381;DHT22;17169;50.966;11.038;2023-03-17T06:58:50;8.30;87.00
30381;DHT22;17169;50.966;11.038;2023-03-17T07:01:53;8.40;87.20
30381;DHT22;17169;50.966;11.038;2023-03-17T07:04:56;8.50;86.90
30381;DHT22;17169;50.966;11.038;2023-03-17T07:07:59;8.70;87.00
30381;DHT22;17169;50.966;11.038;2023-03-17T07:11:01;8.80;85.60
30381;DHT22;17169;50.966;11.038;2023-03-17T07:14:05;8.90;85.80
30381;DHT22;17169;50.966;11.038;2023-03-17T07:17:11;9.10;84.70
30381;DHT22;17169;50.966;11.038;2023-03-17T07:20:14;9.30;84.00
30381;DHT22;17169;50.966;11.038;2023-03-17T07:23:19;9.40;84.50
30381;DHT22;17169;50.966;11.038;2023-03-17T07:26:21;9.50;84.00
30381;DHT22;17169;50.966;11.038;2023-03-17T07:29:25;9.70;83.80
30381;DHT22;17169;50.966;11.038;2023-03-17T07:32:29;9.80;82.40
30381;DHT22;17169;50.966;11.038;2023-03-17T07:35:32;9.90;82.90
30381;DHT22;17169;50.966;11.038;2023-03-17T07:38:34;10.00;82.70
30381;DHT22;17169;50.966;11.038;2023-03-17T07:41:37;10.10;81.90
30381;DHT22;17169;50.966;11.038;2023-03-17T07:44:41;10.30;81.60
30381;DHT22;17169;50.966;11.038;2023-03-17T07:47:43;10.40;81.50
30381;DHT22;17169;50.966;11.038;2023-03-17T07:50:46;10.50;81.20
30381;DHT22;17169;50.966;11.038;2023-03-17T07:53:48;10.60;80.80
30381;DHT22;17169;50.966;11.038;2023-03-17T07:56:52;10.60;80.00
30381;DHT22;17169;50.966;11.038;2023-03-17T07:59:56;10.70;81.00
30381;DHT22;17169;50.966;11.038;2023-03-17T08:02:58;10.70;80.40
30381;DHT22;17169;50.966;11.038;2023-03-17T08:06:01;10.80;81.20
30381;DHT22;17169;50.966;11.038;2023-03-17T08:09:03;10.80;80.30
30381;DHT22;17169;50.966;11.038;2023-03-17T08:12:06;10.80;79.70
30381;DHT22;17169;50.966;11.038;2023-03-17T08:15:11;10.90;79.50
30381;DHT22;17169;50.966;11.038;2023-03-17T08:18:13;10.90;78.60
30381;DHT22;17169;50.966;11.038;2023-03-17T08:21:16;11.10;79.10
30381;DHT22;17169;50.966;11.038;2023-03-17T08:24:18;11.20;78.50
30381;DHT22;17169;50.966;11.038;2023-03-17T08:27:20;11.30;78.10
30381;DHT22;17169;50.966;11.038;2023-03-17T08:30:24;11.50;78.50
30381;DHT22;17169;50.966;11.038;2023-03-17T08:33:27;11.50;78.40
30381;DHT22;17169;50.966;11.038;2023-03-17T08:36:30;11.70;77.40
30381;DHT22;17169;50.966;11.038;2023-03-17T08:39:32;11.90;77.20
30381;DHT22;17169;50.966;11.038;2023-03-17T08:42:35;12.00;78.00
30381;DHT22;17169;50.966;11.038;2023-03-17T08:45:39;12.20;76.70
30381;DHT22;17169;50.966;11.038;2023-03-17T08:48:42;12.30;78.40
30381;DHT22;17169;50.966;11.038;2023-03-17T08:51:45;12.40;77.00
30381;DHT22;17169;50.966;11.038;2023-03-17T08:54:47;12.50;78.00
30381;DHT22;17169;50.966;11.038;2023-03-17T08:57:50;12.60;76.50
30381;DHT22;17169;50.966;11.038;2023-03-17T09:00:57;12.80;75.80
30381;DHT22;17169;50.966;11.038;2023-03-17T09:04:00;12.90;77.10
30381;DHT22;17169;50.966;11.038;2023-03-17T09:07:02;13.00;77.10
30381;DHT22;17169;50.966;11.038;2023-03-17T09:10:08;13.10;77.50
30381;DHT22;17169;50.966;11.038;2023-03-17T09:13:10;13.30;76.50
30381;DHT22;17169;50.966;11.038;2023-03-17T09:16:15;13.40;76.60
30381;DHT22;17169;50.966;11.038;2023-03-17T09:19:18;13.60;76.10
30381;DHT22;17169;50.966;11.038;2023-03-17T09:22:20;13.70;76.70
30381;DHT22;17169;50.966;11.038;2023-03-17T09:25:23;13.70;76.00
30381;DHT22;17169;50.966;11.038;2023-03-17T09:28:26;13.80;75.90
30381;DHT22;17169;50.966;11.038;2023-03-17T09:31:30;13.90;74.80
30381;DHT22;17169;50.966;11.038;2023-03-17T09:34:33;14.00;75.00
30381;DHT22;17169;50.966;11.038;2023-03-17T09:37:36;14.20;73.70
30381;DHT22;17169;50.966;11.038;2023-03-17T09:40:45;14.30;74.30
30381;DHT22;17169;50.966;11.038;2023-03-17T09:43:52;14.40;73.60
30381;DHT22;17169;50.966;11.038;2023-03-17T09:47:03;14.40;74.00
30381;DHT22;17169;50.966;11.038;2023-03-17T09:50:16;14.50;72.20
30381;DHT22;17169;50.966;11.038;2023-03-17T09:53:22;14.60;72.40
30381;DHT22;17169;50.966;11.038;2023-03-17T09:56:29;14.70;73.50
30381;DHT22;17169;50.966;11.038;2023-03-17T09:59:33;14.80;73.80
30381;DHT22;17169;50.966;11.038;2023-03-17T10:02:38;14.80;73.60
30381;DHT22;17169;50.966;11.038;2023-03-17T10:05:41;14.90;73.90
30381;DHT22;17169;50.966;11.038;2023-03-17T10:08:49;15.00;73.50
30381;DHT22;17169;50.966;11.038;2023-03-17T10:12:01;15.10;73.20
30381;DHT22;17169;50.966;11.038;2023-03-17T10:15:12;15.20;73.40
30381;DHT22;17169;50.966;11.038;2023-03-17T10:18:18;15.30;73.70
30381;DHT22;17169;50.966;11.038;2023-03-17T10:21:26;15.40;71.20
30381;DHT22;17169;50.966;11.038;2023-03-17T10:24:31;15.60;73.20
30381;DHT22;17169;50.966;11.038;2023-03-17T10:27:36;15.70;73.00
30381;DHT22;17169;50.966;11.038;2023-03-17T10:30:39;15.90;71.90
30381;DHT22;17169;50.966;11.038;2023-03-17T10:33:43;16.10;72.50
30381;DHT22;17169;50.966;11.038;2023-03-17T10:36:50;16.20;71.20
30381;DHT22;17169;50.966;11.038;2023-03-17T10:39:56;16.40;71.20
30381;DHT22;17169;50.966;11.038;2023-03-17T10:43:01;16.50;71.40
30381;DHT22;17169;50.966;11.038;2023-03-17T10:46:17;16.70;69.60
30381;DHT22;17169;50.966;11.038;2023-03-17T10:49:21;16.90;69.20
30381;DHT22;17169;50.966;11.038;2023-03-17T10:52:28;16.90;70.40
30381;DHT22;17169;50.966;11.038;2023-03-17T10:55:33;17.00;69.20
30381;DHT22;17169;50.966;11.038;2023-03-17T10:58:44;17.10;68.40
30381;DHT22;17169;50.966;11.038;2023-03-17T11:01:52;17.20;68.40
30381;DHT22;17169;50.966;11.038;2023-03-17T11:05:03;17.20;68.50
30381;DHT22;17169;50.966;11.038;2023-03-17T11:08:08;17.30;66.60
30381;DHT22;17169;50.966;11.038;2023-03-17T11:11:22;17.40;66.90
30381;DHT22;17169;50.966;11.038;2023-03-17T11:14:25;17.50;67.60
30381;DHT22;17169;50.966;11.038;2023-03-17T11:17:38;17.50;65.60
30381;DHT22;17169;50.966;11.038;2023-03-17T11:20:52;17.60;67.20
30381;DHT22;17169;50.966;11.038;2023-03-17T11:23:59;17.60;65.30
30381;DHT22;17169;50.966;11.038;2023-03-17T11:27:11;17.60;67.20
30381;DHT22;17169;50.966;11.038;2023-03-17T11:30:24;17.60;67.50
30381;DHT22;17169;50.966;11.038;2023-03-17T11:33:35;17.70;65.60
30381;DHT22;17169;50.966;11.038;2023-03-17T11:36:45;17.70;66.90
30381;DHT22;17169;50.966;11.038;2023-03-17T11:39:54;17.70;65.80
30381;DHT22;17169;50.966;11.038;2023-03-17T11:43:11;17.80;66.70
30381;DHT22;17169;50.966;11.038;2023-03-17T11:46:21;17.90;65.40
30381;DHT22;17169;50.966;11.038;2023-03-17T11:49:32;17.90;65.90
30381;DHT22;17169;50.966;11.038;2023-03-17T11:52:45;18.00;66.00
30381;DHT22;17169;50.966;11.038;2023-03-17T11:55:51;18.10;65.90
30381;DHT22;17169;50.966;11.038;2023-03-17T11:58:59;18.20;65.80
30381;DHT22;17169;50.966;11.038;2023-03-17T12:02:14;18.20;64.90
30381;DHT22;17169;50.966;11.038;2023-03-17T12:05:21;18.40;65.90
30381;DHT22;17169;50.966;11.038;2023-03-17T12:08:32;18.40;63.80
30381;DHT22;17169;50.966;11.038;2023-03-17T12:11:39;18.40;64.40
30381;DHT22;17169;50.966;11.038;2023-03-17T12:14:45;18.60;65.00
30381;DHT22;17169;50.966;11.038;2023-03-17T12:17:52;18.70;63.20
30381;DHT22;17169;50.966;11.038;2023-03-17T12:20:59;18.90;64.20
30381;DHT22;17169;50.966;11.038;2023-03-17T12:24:10;19.00;62.00
30381;DHT22;17169;50.966;11.038;2023-03-17T12:27:15;19.10;61.50
30381;DHT22;17169;50.966;11.038;2023-03-17T12:30:26;19.20;62.00
30381;DHT22;17169;50.966;11.038;2023-03-17T12:33:35;19.40;60.60
30381;DHT22;17169;50.966;11.038;2023-03-17T12:36:39;19.50;61.80
30381;DHT22;17169;50.966;11.038;2023-03-17T12:39:47;19.70;61.50
30381;DHT22;17169;50.966;11.038;2023-03-17T12:42:59;19.80;62.20
30381;DHT22;17169;50.966;11.038;2023-03-17T12:46:29;20.00;59.60
30381;DHT22;17169;50.966;11.038;2023-03-17T12:53:23;19.90;56.40
30381;DHT22;17169;50.966;11.038;2023-03-17T12:56:30;19.90;56.50
30381;DHT22;17169;50.966;11.038;2023-03-17T12:59:32;20.00;58.00
30381;DHT22;17169;50.966;11.038;2023-03-17T13:02:38;20.10;57.90
30381;DHT22;17169;50.966;11.038;2023-03-17T13:05:44;20.10;56.10
30381;DHT22;17169;50.966;11.038;2023-03-17T13:08:49;20.30;57.10
30381;DHT22;17169;50.966;11.038;2023-03-17T13:11:53;20.40;56.90
30381;DHT22;17169;50.966;11.038;2023-03-17T13:14:57;20.60;57.10
30381;DHT22;17169;50.966;11.038;2023-03-17T13:21:58;20.80;56.10
30381;DHT22;17169;50.966;11.038;2023-03-17T13:25:29;20.90;55.60
30381;DHT22;17169;50.966;11.038;2023-03-17T13:28:40;21.00;55.40
30381;DHT22;17169;50.966;11.038;2023-03-17T13:31:43;21.00;54.60
30381;DHT22;17169;50.966;11.038;2023-03-17T13:34:48;21.00;53.90
30381;DHT22;17169;50.966;11.038;2023-03-17T13:41:39;21.10;54.10
30381;DHT22;17169;50.966;11.038;2023-03-17T13:45:08;21.30;55.40
30381;DHT22;17169;50.966;11.038;2023-03-17T13:48:34;21.50;54.10
30381;DHT22;17169;50.966;11.038;2023-03-17T13:51:37;21.70;53.10
30381;DHT22;17169;50.966;11.038;2023-03-17T13:54:41;21.80;53.90
30381;DHT22;17169;50.966;11.038;2023-03-17T13:57:54;21.90;52.70
30381;DHT22;17169;50.966;11.038;2023-03-17T14:01:16;21.90;52.30
30381;DHT22;17169;50.966;11.038;2023-03-17T14:04:21;21.90;51.70
30381;DHT22;17169;50.966;11.038;2023-03-17T14:07:26;21.90;53.00
30381;DHT22;17169;50.966;11.038;2023-03-17T14:10:32;21.90;51.60
30381;DHT22;17169;50.966;11.038;2023-03-17T14:13:42;22.00;52.00
30381;DHT22;17169;50.966;11.038;2023-03-17T14:16:52;21.90;50.90
30381;DHT22;17169;50.966;11.038;2023-03-17T14:20:02;21.70;49.80
30381;DHT22;17169;50.966;11.038;2023-03-17T14:23:08;21.60;50.00
30381;DHT22;17169;50.966;11.038;2023-03-17T14:26:11;21.70;50.70
30381;DHT22;17169;50.966;11.038;2023-03-17T14:29:16;21.90;50.30
30381;DHT22;17169;50.966;11.038;2023-03-17T14:32:20;22.10;50.90
30381;DHT22;17169;50.966;11.038;2023-03-17T14:35:28;22.20;50.30
30381;DHT22;17169;50.966;11.038;2023-03-17T14:38:33;22.20;51.00
30381;DHT22;17169;50.966;11.038;2023-03-17T14:41:35;22.20;50.50
30381;DHT22;17169;50.966;11.038;2023-03-17T14:44:41;22.20;51.00
30381;DHT22;17169;50.966;11.038;2023-03-17T14:47:44;22.10;50.90
30381;DHT22;17169;50.966;11.038;2023-03-17T14:50:51;22.10;51.90
30381;DHT22;17169;50.966;11.038;2023-03-17T14:53:58;22.00;51.10
30381;DHT22;17169;50.966;11.038;2023-03-17T14:57:04;21.80;50.90
30381;DHT22;17169;50.966;11.038;2023-03-17T15:00:34;21.80;50.50
30381;DHT22;17169;50.966;11.038;2023-03-17T15:03:39;21.80;51.50
30381;DHT22;17169;50.966;11.038;2023-03-17T15:06:49;21.80;50.80
30381;DHT22;17169;50.966;11.038;2023-03-17T15:09:57;21.70;51.60
30381;DHT22;17169;50.966;11.038;2023-03-17T15:13:03;21.60;52.10
30381;DHT22;17169;50.966;11.038;2023-03-17T15:16:16;21.60;51.50
30381;DHT22;17169;50.966;11.038;2023-03-17T15:19:22;21.40;51.80
30381;DHT22;17169;50.966;11.038;2023-03-17T15:22:29;21.20;52.60
30381;DHT22;17169;50.966;11.038;2023-03-17T15:25:33;21.10;52.50
30381;DHT22;17169;50.966;11.038;2023-03-17T15:28:38;20.90;52.30
30381;DHT22;17169;50.966;11.038;2023-03-17T15:31:42;20.80;53.30
30381;DHT22;17169;50.966;11.038;2023-03-17T15:34:45;20.60;52.50
30381;DHT22;17169;50.966;11.038;2023-03-17T15:37:47;20.40;53.00
30381;DHT22;17169;50.966;11.038;2023-03-17T15:40:49;20.30;54.80
30381;DHT22;17169;50.966;11.038;2023-03-17T15:43:52;20.10;55.40
30381;DHT22;17169;50.966;11.038;2023-03-17T15:46:56;19.90;55.20
30381;DHT22;17169;50.966;11.038;2023-03-17T15:50:00;19.70;54.60
30381;DHT22;17169;50.966;11.038;2023-03-17T15:53:04;19.50;55.00
30381;DHT22;17169;50.966;11.038;2023-03-17T15:56:15;19.30;56.20
30381;DHT22;17169;50.966;11.038;2023-03-17T15:59:19;19.10;55.90
30381;DHT22;17169;50.966;11.038;2023-03-17T16:02:28;18.90;56.20
30381;DHT22;17169;50.966;11.038;2023-03-17T16:05:32;18.90;57.50
30381;DHT22;17169;50.966;11.038;2023-03-17T16:08:35;18.80;57.70
30381;DHT22;17169;50.966;11.038;2023-03-17T16:11:38;18.70;57.80
30381;DHT22;17169;50.966;11.038;2023-03-17T16:14:41;18.60;57.70
30381;DHT22;17169;50.966;11.038;2023-03-17T16:17:45;18.40;58.40
30381;DHT22;17169;50.966;11.038;2023-03-17T16:20:49;18.30;58.50
30381;DHT22;17169;50.966;11.038;2023-03-17T16:23:53;18.20;58.50
30381;DHT22;17169;50.966;11.038;2023-03-17T16:26:56;18.00;58.40
30381;DHT22;17169;50.966;11.038;2023-03-17T16:29:58;17.80;58.50
30381;DHT22;17169;50.966;11.038;2023-03-17T16:33:05;17.70;59.20
30381;DHT22;17169;50.966;11.038;2023-03-17T16:36:13;17.60;59.30
30381;DHT22;17169;50.966;11.038;2023-03-17T16:39:18;17.50;59.50
30381;DHT22;17169;50.966;11.038;2023-03-17T16:42:21;17.40;59.90
30381;DHT22;17169;50.966;11.038;2023-03-17T16:45:27;17.30;60.70
30381;DHT22;17169;50.966;11.038;2023-03-17T16:48:32;17.10;60.80
30381;DHT22;17169;50.966;11.038;2023-03-17T16:51:34;17.10;61.10
30381;DHT22;17169;50.966;11.038;2023-03-17T16:54:36;17.00;62.20
30381;DHT22;17169;50.966;11.038;2023-03-17T16:57:40;16.90;62.40
30381;DHT22;17169;50.966;11.038;2023-03-17T17:00:44;16.80;62.70
30381;DHT22;17169;50.966;11.038;2023-03-17T17:03:49;16.70;62.70
30381;DHT22;17169;50.966;11.038;2023-03-17T17:06:51;16.60;63.50
30381;DHT22;17169;50.966;11.038;2023-03-17T17:09:55;16.40;63.90
30381;DHT22;17169;50.966;11.038;2023-03-17T17:12:57;16.40;64.40
30381;DHT22;17169;50.966;11.038;2023-03-17T17:15:59;16.20;64.20
30381;DHT22;17169;50.966;11.038;2023-03-17T17:19:11;16.10;64.40
30381;DHT22;17169;50.966;11.038;2023-03-17T17:22:15;16.00;64.60
30381;DHT22;17169;50.966;11.038;2023-03-17T17:25:17;16.00;65.30
30381;DHT22;17169;50.966;11.038;2023-03-17T17:28:22;15.90;65.60
30381;DHT22;17169;50.966;11.038;2023-03-17T17:31:24;15.80;65.70
30381;DHT22;17169;50.966;11.038;2023-03-17T17:34:28;15.80;65.80
30381;DHT22;17169;50.966;11.038;2023-03-17T17:37:31;15.70;66.40
30381;DHT22;17169;50.966;11.038;2023-03-17T17:40:33;15.60;66.60
30381;DHT22;17169;50.966;11.038;2023-03-17T17:43:37;15.60;67.10
30381;DHT22;17169;50.966;11.038;2023-03-17T17:46:40;15.50;67.30
30381;DHT22;17169;50.966;11.038;2023-03-17T17:49:44;15.50;67.40
30381;DHT22;17169;50.966;11.038;2023-03-17T17:52:46;15.40;67.20
30381;DHT22;17169;50.966;11.038;2023-03-17T17:55:49;15.40;67.20
30381;DHT22;17169;50.966;11.038;2023-03-17T17:58:51;15.40;67.60
30381;DHT22;17169;50.966;11.038;2023-03-17T18:01:54;15.30;66.90
30381;DHT22;17169;50.966;11.038;2023-03-17T18:04:58;15.30;67.20
30381;DHT22;17169;50.966;11.038;2023-03-17T18:08:01;15.30;67.40
30381;DHT22;17169;50.966;11.038;2023-03-17T18:11:04;15.30;67.20
30381;DHT22;17169;50.966;11.038;2023-03-17T18:14:08;15.20;67.80
30381;DHT22;17169;50.966;11.038;2023-03-17T18:17:10;15.20;68.00
30381;DHT22;17169;50.966;11.038;2023-03-17T18:20:15;15.10;68.30
30381;DHT22;17169;50.966;11.038;2023-03-17T18:23:18;15.10;68.00
30381;DHT22;17169;50.966;11.038;2023-03-17T18:26:21;15.10;68.10
30381;DHT22;17169;50.966;11.038;2023-03-17T18:29:24;15.10;68.00
30381;DHT22;17169;50.966;11.038;2023-03-17T18:32:26;15.00;67.90
30381;DHT22;17169;50.966;11.038;2023-03-17T18:35:31;15.00;68.30
30381;DHT22;17169;50.966;11.038;2023-03-17T18:38:34;15.00;68.40
30381;DHT22;17169;50.966;11.038;2023-03-17T18:41:37;15.00;68.20
30381;DHT22;17169;50.966;11.038;2023-03-17T18:44:39;14.90;68.20
30381;DHT22;17169;50.966;11.038;2023-03-17T18:47:42;14.90;68.20
30381;DHT22;17169;50.966;11.038;2023-03-17T18:50:46;14.90;68.20
30381;DHT22;17169;50.966;11.038;2023-03-17T18:53:48;14.90;68.50
30381;DHT22;17169;50.966;11.038;2023-03-17T18:56:51;14.90;68.00
30381;DHT22;17169;50.966;11.038;2023-03-17T18:59:53;14.90;68.20
30381;DHT22;17169;50.966;11.038;2023-03-17T19:02:56;14.90;68.60
30381;DHT22;17169;50.966;11.038;2023-03-17T19:06:08;14.90;68.30
30381;DHT22;17169;50.966;11.038;2023-03-17T19:09:11;14.90;68.10
30381;DHT22;17169;50.966;11.038;2023-03-17T19:12:14;14.90;68.00
30381;DHT22;17169;50.966;11.038;2023-03-17T19:15:16;14.90;68.00
30381;DHT22;17169;50.966;11.038;2023-03-17T19:18:19;14.80;67.90
30381;DHT22;17169;50.966;11.038;2023-03-17T19:21:23;14.80;68.10
30381;DHT22;17169;50.966;11.038;2023-03-17T19:24:26;14.80;68.00
30381;DHT22;17169;50.966;11.038;2023-03-17T19:27:28;14.90;68.10
30381;DHT22;17169;50.966;11.038;2023-03-17T19:30:31;14.90;68.30
30381;DHT22;17169;50.966;11.038;2023-03-17T19:33:33;14.80;68.10